< < Back
Terminal Aerodrome Forecast


Current Version              Previous Versions:   1  2  3  4  5  6  7  8  9  

Terminal Aerodrome Forecast

358
FTUS42 KGSP 210500
TAFAND
TAF
KAND 210524Z 2106/2206 00000KT P6SM FEW150
     FM210900 25003KT 5SM BR FEW230
     FM211300 29003KT P6SM FEW250
     FM211600 29007KT P6SM FEW250
     FM220300 35005KT P6SM FEW250=



Latest METAR

824
SAUS70 KWBC 211000 RRI
MTRAND
METAR KAND 210956Z AUTO 31004KT 2SM BR CLR 09/08 A2997 RMK AO2 SLP144
T00890083


USA.gov is the U.S. government's official web portal to all federal, state and local government web resources and services.